Terminal Aerodrome Forecast
Issued by NWS

Home | Current Version | Previous Version | Text Only | Print | Product List | Glossary On
Versions: 1 2 3 4 5 6 7 8 9 10 11 12 13 14 15
000
FTUS42 KTAE 250500
TAFABY
TAF
KABY 250538Z 2506/2606 23004KT P6SM SCT007
     FM250800 22004KT 5SM BR BKN005
     FM251400 27010G15KT P6SM SCT035
     FM251600 27013G20KT P6SM SCT040
     FM260100 28005KT P6SM SKC=

USA.gov is the U.S. government's official web portal to all federal, state and local government web resources and services.